Terminal Aerodrome Forecast
Issued by NWS Sterling, VA

Current Version | Previous Version | Text Only | Print | Product List | Glossary Off
Versions: 1 2 3 4 5 6 7 8 9 10 11 12 13 14 15 16 17 18 19 20 21 22 23 24 25 26

000
FTUS41 KLWX 202320
TAFDCA
TAF
KDCA 202320Z 2100/2124 34006KT P6SM SCT250
     FM210800 VRB03KT P6SM OVC110
     FM211100 08006KT P6SM -SHRA OVC060
     FM211800 04006KT 6SM -SHRA BR OVC025
     FM211900 04006KT 6SM BR OVC025=

USA.gov is the U.S. government's official web portal to all federal, state and local government web resources and services.